createdAt,value
2019-04-10T00:01:21.229Z,10.88
2019-04-10T00:03:51.706Z,10.88
2019-04-10T00:06:21.981Z,10.84
2019-04-10T00:08:52.787Z,10.87
2019-04-10T00:11:23.340Z,10.86
2019-04-10T00:13:53.642Z,10.85
2019-04-10T00:16:24.506Z,10.84
2019-04-10T00:18:56.031Z,10.80
2019-04-10T00:21:26.712Z,10.81
2019-04-10T00:23:57.708Z,10.82
2019-04-10T00:26:29.929Z,10.81
2019-04-10T00:29:00.544Z,10.79
2019-04-10T00:31:31.780Z,10.74
2019-04-10T00:34:02.164Z,10.73
2019-04-10T00:36:33.184Z,10.73
2019-04-10T00:39:06.459Z,10.69
2019-04-10T00:41:37.011Z,10.71
2019-04-10T00:44:07.790Z,10.71
2019-04-10T00:46:40.102Z,10.70
2019-04-10T00:49:10.339Z,10.69
2019-04-10T00:51:41.947Z,10.69
2019-04-10T00:54:12.152Z,10.65
2019-04-10T00:56:43.347Z,10.65
2019-04-10T00:59:13.565Z,10.61
2019-04-10T01:01:43.857Z,10.58
2019-04-10T01:04:14.155Z,10.54
2019-04-10T01:06:44.386Z,10.51
2019-04-10T01:09:15.387Z,10.51
2019-04-10T01:11:45.784Z,10.46
2019-04-10T01:14:15.918Z,10.44
2019-04-10T01:16:47.278Z,10.41
2019-04-10T01:19:17.626Z,10.40
2019-04-10T01:21:48.119Z,10.40
2019-04-10T01:24:19.558Z,10.38
2019-04-10T01:26:50.051Z,10.36
2019-04-10T01:29:21.730Z,10.34
2019-04-10T01:31:53.115Z,10.35
2019-04-10T01:34:23.325Z,10.30
2019-04-10T01:36:54.580Z,10.32
2019-04-10T01:39:28.648Z,10.33
2019-04-10T01:41:58.791Z,10.34
2019-04-10T01:44:30.920Z,10.35
2019-04-10T01:47:01.253Z,10.33
2019-04-10T01:49:31.573Z,10.33
2019-04-10T01:52:01.789Z,10.31
2019-04-10T01:54:31.972Z,10.32
2019-04-10T01:57:04.095Z,10.31
2019-04-10T01:59:36.166Z,10.31
2019-04-10T02:02:29.464Z,10.33
2019-04-10T02:05:00.673Z,10.32
2019-04-10T02:07:31.918Z,10.32
2019-04-10T02:10:03.678Z,10.30
2019-04-10T02:12:35.250Z,10.19
2019-04-10T02:15:11.239Z,10.08
2019-04-10T02:17:39.423Z,10.12
2019-04-10T02:20:10.490Z,10.06
2019-04-10T02:22:40.787Z,10.07
2019-04-10T02:25:12.080Z,10.00
2019-04-10T02:27:42.691Z,10.00
2019-04-10T02:30:16.395Z,9.92
2019-04-10T02:32:48.239Z,9.81
2019-04-10T02:35:20.272Z,9.86
2019-04-10T02:37:54.963Z,9.88
2019-04-10T02:40:23.681Z,9.83
2019-04-10T02:42:54.759Z,9.86
2019-04-10T02:45:25.965Z,9.88
2019-04-10T02:47:56.605Z,9.87
2019-04-10T02:50:27.349Z,9.81
2019-04-10T02:52:59.249Z,9.88
2019-04-10T02:55:31.384Z,9.92
2019-04-10T02:58:02.596Z,9.85
2019-04-10T03:00:35.891Z,9.88
2019-04-10T03:03:06.528Z,9.86
2019-04-10T03:05:38.286Z,9.70
2019-04-10T03:08:09.352Z,9.71
2019-04-10T03:10:48.614Z,9.65
2019-04-10T03:13:13.741Z,9.61
2019-04-10T03:15:45.453Z,9.51
2019-04-10T03:18:16.756Z,9.48
2019-04-10T03:20:47.404Z,9.49
2019-04-10T03:23:17.712Z,9.48
2019-04-10T03:25:48.834Z,9.42
2019-04-10T03:28:19.241Z,9.34
2019-04-10T03:30:49.627Z,9.36
2019-04-10T03:33:33.727Z,9.35
2019-04-10T03:36:05.277Z,9.34
2019-04-10T03:38:49.666Z,9.30
2019-04-10T03:41:08.137Z,9.29
2019-04-10T03:43:38.348Z,9.37
2019-04-10T03:46:08.930Z,9.28
2019-04-10T03:48:39.270Z,9.26
2019-04-10T03:51:09.647Z,9.13
2019-04-10T03:53:40.354Z,9.14
2019-04-10T03:56:11.718Z,9.15
2019-04-10T03:58:42.073Z,9.13
2019-04-10T04:01:12.314Z,9.12
2019-04-10T04:03:42.700Z,9.20
2019-04-10T04:06:12.936Z,9.12
2019-04-10T04:08:43.691Z,9.15
2019-04-10T04:11:13.824Z,9.17
2019-04-10T04:13:44.084Z,9.11
2019-04-10T04:16:15.027Z,9.08
2019-04-10T04:18:45.711Z,9.09
2019-04-10T04:21:16.055Z,8.99
2019-04-10T04:23:46.848Z,8.94
2019-04-10T04:26:17.195Z,9.00
2019-04-10T04:28:47.370Z,8.93
2019-04-10T04:31:18.116Z,8.87
2019-04-10T04:33:48.965Z,8.88
2019-04-10T04:36:20.486Z,8.96
2019-04-10T04:38:51.414Z,9.00
2019-04-10T04:41:23.173Z,9.01
2019-04-10T04:43:53.446Z,9.03
2019-04-10T04:46:23.994Z,9.03
2019-04-10T04:48:57.739Z,9.03
2019-04-10T04:51:27.950Z,9.00
2019-04-10T04:53:58.998Z,8.99
2019-04-10T04:56:29.486Z,9.00
2019-04-10T04:58:59.967Z,8.98
2019-04-10T05:01:31.721Z,8.97
2019-04-10T05:04:02.432Z,8.96
2019-04-10T05:06:35.057Z,9.01
2019-04-10T05:09:07.669Z,9.00
2019-04-10T05:11:38.547Z,8.99
2019-04-10T05:14:08.785Z,8.99
2019-04-10T05:16:39.541Z,8.98
2019-04-10T05:19:10.225Z,8.95
2019-04-10T05:21:41.501Z,8.95
2019-04-10T05:24:13.714Z,9.00
2019-04-10T05:26:44.840Z,8.96
2019-04-10T05:29:15.500Z,8.97
2019-04-10T05:31:46.610Z,8.99
2019-04-10T05:34:17.791Z,8.97
2019-04-10T05:36:49.142Z,8.95
2019-04-10T05:39:20.565Z,8.93
2019-04-10T05:41:51.077Z,8.93
2019-04-10T05:44:21.489Z,8.90
2019-04-10T05:46:52.683Z,8.90
2019-04-10T05:49:24.673Z,8.85
2019-04-10T05:51:55.621Z,8.90
2019-04-10T05:54:27.080Z,8.90
2019-04-10T05:56:57.397Z,8.97
2019-04-10T05:59:28.074Z,9.01
2019-04-10T06:01:59.161Z,8.94
2019-04-10T06:04:29.555Z,8.98
2019-04-10T06:06:59.675Z,9.03
2019-04-10T06:09:31.158Z,8.98
2019-04-10T06:12:02.318Z,8.91
2019-04-10T06:14:34.505Z,8.84
2019-04-10T06:17:05.996Z,8.95
2019-04-10T06:19:36.490Z,9.03
2019-04-10T06:22:09.645Z,9.08
2019-04-10T06:24:40.430Z,9.03
2019-04-10T06:27:12.361Z,9.00
2019-04-10T06:29:43.471Z,9.06
2019-04-10T06:32:16.965Z,9.14
2019-04-10T06:34:48.114Z,9.18
2019-04-10T06:37:19.035Z,9.20
2019-04-10T06:39:49.424Z,9.25
2019-04-10T06:42:22.752Z,9.27
2019-04-10T06:44:52.933Z,9.27
2019-04-10T06:47:23.068Z,9.29
2019-04-10T06:49:55.352Z,9.32
2019-04-10T06:52:27.016Z,9.35
2019-04-10T06:54:57.435Z,9.34
2019-04-10T06:57:27.771Z,9.30
2019-04-10T06:59:59.756Z,9.31
2019-04-10T07:02:31.579Z,9.25
2019-04-10T07:05:06.250Z,9.19
2019-04-10T07:07:46.546Z,9.13
2019-04-10T07:10:21.415Z,9.16
2019-04-10T07:12:39.924Z,9.08
2019-04-10T07:15:10.682Z,9.19
2019-04-10T07:17:43.191Z,9.23
2019-04-10T07:20:17.624Z,9.34
2019-04-10T07:22:47.160Z,9.44
2019-04-10T07:25:19.619Z,9.49
2019-04-10T07:27:50.295Z,9.53
2019-04-10T07:30:24.156Z,9.61
2019-04-10T07:32:53.073Z,9.67
2019-04-10T07:35:23.802Z,9.67
2019-04-10T07:37:56.686Z,9.68
2019-04-10T07:40:26.126Z,9.70
2019-04-10T07:42:56.719Z,9.75
2019-04-10T07:45:27.349Z,9.80
2019-04-10T07:47:57.878Z,9.75
2019-04-10T07:50:28.693Z,9.66
2019-04-10T07:52:59.839Z,9.60
2019-04-10T07:55:30.938Z,9.68
2019-04-10T07:58:02.690Z,9.76
2019-04-10T08:00:33.075Z,9.77
2019-04-10T08:03:04.171Z,9.97
2019-04-10T08:05:35.432Z,10.08
2019-04-10T08:08:06.004Z,10.18
2019-04-10T08:10:37.360Z,10.26
2019-04-10T08:13:08.594Z,10.45
2019-04-10T08:15:39.104Z,10.60
2019-04-10T08:18:10.062Z,10.61
2019-04-10T08:20:40.391Z,10.75
2019-04-10T08:23:12.204Z,10.88
2019-04-10T08:25:43.121Z,11.10
2019-04-10T08:28:13.625Z,11.20
2019-04-10T08:30:44.062Z,11.24
2019-04-10T08:33:14.421Z,11.20
2019-04-10T08:35:45.453Z,11.24
2019-04-10T08:38:17.234Z,11.24
2019-04-10T08:40:48.223Z,11.31
2019-04-10T08:43:18.752Z,11.27
2019-04-10T08:45:52.073Z,11.22
2019-04-10T08:48:21.955Z,11.24
2019-04-10T08:50:52.610Z,11.34
2019-04-10T08:53:22.839Z,11.41
2019-04-10T08:55:53.028Z,11.50
2019-04-10T08:58:24.957Z,11.62
2019-04-10T09:00:56.597Z,11.63
2019-04-10T09:03:27.142Z,11.51
2019-04-10T09:05:57.354Z,11.48
2019-04-10T09:08:28.765Z,11.46
2019-04-10T09:10:59.535Z,11.50
2019-04-10T09:13:30.669Z,11.63
2019-04-10T09:16:00.955Z,11.75
2019-04-10T09:18:31.558Z,11.75
2019-04-10T09:21:02.776Z,11.85
2019-04-10T09:23:42.548Z,11.94
2019-04-10T09:26:05.860Z,11.98
2019-04-10T09:28:36.091Z,12.00
2019-04-10T09:31:07.356Z,12.05
2019-04-10T09:33:37.658Z,11.98
2019-04-10T09:36:09.041Z,11.92
2019-04-10T09:38:43.927Z,11.70
2019-04-10T09:41:14.036Z,11.57
2019-04-10T09:43:45.610Z,11.68
2019-04-10T09:46:16.282Z,11.73
2019-04-10T09:48:46.430Z,11.70
2019-04-10T09:51:19.447Z,11.71
2019-04-10T09:53:51.015Z,11.75
2019-04-10T09:56:21.502Z,11.63
2019-04-10T09:58:51.981Z,11.71
2019-04-10T10:01:22.251Z,11.83
2019-04-10T10:03:52.829Z,11.84
2019-04-10T10:06:29.908Z,11.81
2019-04-10T10:08:58.457Z,11.78
2019-04-10T10:11:28.750Z,11.81
2019-04-10T10:13:59.191Z,11.70
2019-04-10T10:16:30.352Z,11.78
2019-04-10T10:19:01.606Z,11.82
2019-04-10T10:21:32.469Z,11.79
2019-04-10T10:24:03.138Z,11.64
2019-04-10T10:26:34.390Z,11.71
2019-04-10T10:29:05.171Z,11.65
2019-04-10T10:31:36.069Z,11.71
2019-04-10T10:34:06.514Z,11.73
2019-04-10T10:36:41.932Z,11.76
2019-04-10T10:39:19.380Z,11.80
2019-04-10T10:41:51.244Z,11.83
2019-04-10T10:44:22.031Z,11.93
2019-04-10T10:46:52.302Z,12.08
2019-04-10T10:49:22.572Z,12.16
2019-04-10T10:51:53.297Z,12.28
2019-04-10T10:54:23.555Z,12.42
2019-04-10T10:56:54.936Z,12.46
2019-04-10T10:59:25.426Z,12.42
2019-04-10T11:01:56.074Z,12.41
2019-04-10T11:04:27.421Z,12.42
2019-04-10T11:07:00.902Z,12.36
2019-04-10T11:09:30.185Z,12.16
2019-04-10T11:12:01.727Z,12.17
2019-04-10T11:14:33.036Z,12.09
2019-04-10T11:17:03.444Z,12.21
2019-04-10T11:19:35.535Z,12.27
2019-04-10T11:22:07.631Z,12.35
2019-04-10T11:24:40.747Z,12.60
2019-04-10T11:27:11.605Z,12.85
2019-04-10T11:29:42.648Z,13.01
2019-04-10T11:32:14.393Z,12.93
2019-04-10T11:34:46.567Z,12.92
2019-04-10T11:37:27.099Z,13.08
2019-04-10T11:39:50.797Z,13.19
2019-04-10T11:42:22.603Z,13.35
2019-04-10T11:45:01.873Z,13.52
2019-04-10T11:47:35.410Z,13.52
2019-04-10T11:50:13.407Z,13.51
2019-04-10T11:52:49.004Z,13.44
2019-04-10T11:55:19.895Z,13.24
2019-04-10T11:57:48.945Z,13.39
2019-04-10T12:00:33.266Z,13.53
2019-04-10T12:03:08.735Z,13.51
2019-04-10T12:13:17.996Z,13.85
2019-04-10T12:15:48.449Z,13.95
2019-04-10T12:18:20.130Z,14.11
2019-04-10T12:20:51.537Z,14.28
2019-04-10T12:23:23.134Z,14.36
2019-04-10T12:25:53.805Z,14.39
2019-04-10T12:28:24.206Z,14.33
2019-04-10T12:30:55.489Z,14.23
2019-04-10T12:33:26.260Z,14.20
2019-04-10T12:36:00.394Z,13.74
2019-04-10T12:38:31.909Z,13.41
2019-04-10T12:41:03.444Z,13.42
2019-04-10T12:43:34.753Z,13.46
2019-04-10T12:46:11.372Z,13.54
2019-04-10T12:48:47.215Z,13.55
2019-04-10T12:51:20.136Z,13.53
2019-04-10T12:53:56.143Z,13.53
2019-04-10T12:56:26.947Z,13.46
2019-04-10T12:58:57.493Z,13.46
2019-04-10T13:01:28.910Z,13.50
2019-04-10T13:04:03.748Z,13.49
2019-04-10T13:06:34.163Z,13.56
2019-04-10T13:09:11.507Z,13.65
2019-04-10T13:11:38.958Z,13.78
2019-04-10T13:14:10.468Z,13.90
2019-04-10T13:16:41.372Z,13.99
2019-04-10T13:19:13.166Z,14.00
2019-04-10T13:21:44.400Z,14.10
2019-04-10T13:24:14.810Z,14.21
2019-04-10T13:26:46.117Z,14.28
2019-04-10T13:29:16.315Z,14.42
2019-04-10T13:31:46.765Z,14.55
2019-04-10T13:34:18.232Z,14.74
2019-04-10T13:36:49.283Z,14.81
2019-04-10T13:39:20.409Z,14.89
2019-04-10T13:41:50.695Z,15.00
2019-04-10T13:44:22.357Z,15.03
2019-04-10T13:46:53.197Z,15.05
2019-04-10T13:49:24.058Z,14.98
2019-04-10T13:51:54.398Z,14.94
2019-04-10T13:54:24.801Z,14.96
2019-04-10T13:56:55.306Z,14.90
2019-04-10T13:59:27.559Z,14.64
2019-04-10T14:01:58.472Z,14.54
2019-04-10T14:04:29.878Z,14.45
2019-04-10T14:07:00.521Z,14.38
2019-04-10T14:09:38.758Z,14.51
2019-04-10T14:12:03.999Z,14.62
2019-04-10T14:14:35.089Z,14.63
2019-04-10T14:17:06.937Z,14.70
2019-04-10T14:19:37.667Z,14.72
2019-04-10T14:22:09.278Z,14.68
2019-04-10T14:24:44.740Z,14.77
2019-04-10T14:27:18.282Z,14.73
2019-04-10T14:29:49.103Z,14.68
2019-04-10T14:32:33.418Z,14.74
2019-04-10T14:35:03.768Z,14.72
2019-04-10T14:37:34.208Z,14.71
2019-04-10T14:40:05.680Z,14.65
2019-04-10T14:42:38.265Z,14.56
2019-04-10T14:45:09.316Z,14.55
2019-04-10T14:47:39.757Z,14.47
2019-04-10T14:50:10.491Z,14.42
2019-04-10T14:52:41.142Z,14.33
2019-04-10T14:55:12.459Z,14.36
2019-04-10T14:57:43.264Z,14.34
2019-04-10T15:00:22.419Z,14.26
2019-04-10T15:02:52.636Z,14.25
2019-04-10T15:05:24.374Z,14.21
2019-04-10T15:07:55.357Z,14.15
2019-04-10T15:10:25.833Z,14.10
2019-04-10T15:13:06.950Z,13.96
2019-04-10T15:15:28.498Z,13.96
2019-04-10T15:17:59.032Z,13.90
2019-04-10T15:20:29.591Z,13.90
2019-04-10T15:23:00.834Z,13.85
2019-04-10T15:25:31.608Z,13.79
2019-04-10T15:28:04.359Z,13.76
2019-04-10T15:30:34.746Z,13.70
2019-04-10T15:33:06.623Z,13.58
2019-04-10T15:35:38.358Z,13.53
2019-04-10T15:38:09.480Z,13.46
2019-04-10T15:40:39.959Z,13.27
2019-04-10T15:43:10.866Z,13.27
2019-04-10T15:45:41.514Z,13.28
2019-04-10T15:48:12.505Z,13.23
2019-04-10T15:50:43.459Z,13.21
2019-04-10T15:53:13.916Z,13.22
2019-04-10T15:55:45.310Z,13.22
2019-04-10T15:58:36.442Z,13.10
2019-04-10T16:01:09.775Z,13.12
2019-04-10T16:03:40.786Z,13.06
2019-04-10T16:06:11.190Z,12.99
2019-04-10T16:08:42.703Z,12.92
2019-04-10T16:11:33.876Z,12.85
2019-04-10T16:14:16.857Z,12.77
2019-04-10T16:17:08.855Z,12.71
2019-04-10T16:19:51.391Z,12.64
2019-04-10T16:22:35.194Z,12.57
2019-04-10T16:25:15.985Z,12.58
2019-04-10T16:27:46.456Z,12.55
2019-04-10T16:30:18.832Z,12.55
2019-04-10T16:32:50.103Z,12.53
2019-04-10T16:35:21.093Z,12.53
2019-04-10T16:37:51.833Z,12.49
2019-04-10T16:40:22.700Z,12.44
2019-04-10T16:42:53.391Z,12.43
2019-04-10T16:45:24.525Z,12.41
2019-04-10T16:47:54.763Z,12.38
2019-04-10T16:50:25.889Z,12.31
2019-04-10T16:52:56.232Z,12.29
2019-04-10T16:55:26.910Z,12.30
2019-04-10T16:57:57.512Z,12.30
2019-04-10T17:00:27.765Z,12.27
2019-04-10T17:02:58.018Z,12.28
2019-04-10T17:05:33.671Z,12.27
2019-04-10T17:08:03.950Z,12.26
2019-04-10T17:10:34.622Z,12.25
2019-04-10T17:13:07.301Z,12.21
2019-04-10T17:15:37.794Z,12.18
2019-04-10T17:18:08.718Z,12.17
2019-04-10T17:20:38.924Z,12.16
2019-04-10T17:23:10.021Z,12.13
2019-04-10T17:25:40.562Z,12.10
2019-04-10T17:28:12.202Z,12.09
2019-04-10T17:30:44.128Z,12.07
2019-04-10T17:33:15.031Z,12.03
2019-04-10T17:35:47.520Z,11.87
2019-04-10T17:38:20.425Z,11.76
2019-04-10T17:40:55.101Z,11.68
2019-04-10T17:43:23.630Z,11.65
2019-04-10T17:45:55.165Z,11.67
2019-04-10T17:48:28.048Z,11.68
2019-04-10T17:50:58.331Z,11.64
2019-04-10T17:53:29.396Z,11.63
2019-04-10T17:56:02.120Z,11.60
2019-04-10T17:58:34.427Z,11.53
2019-04-10T18:01:08.370Z,11.49
2019-04-10T18:03:47.277Z,11.44
2019-04-10T18:06:12.686Z,11.37
2019-04-10T18:08:43.216Z,11.33
2019-04-10T18:11:14.171Z,11.29
2019-04-10T18:13:44.980Z,11.26
2019-04-10T18:16:15.714Z,11.22
2019-04-10T18:18:47.300Z,11.15
2019-04-10T18:21:20.317Z,10.99
2019-04-10T18:23:51.488Z,10.78
2019-04-10T18:26:23.678Z,10.60
2019-04-10T18:28:54.378Z,10.71
2019-04-10T18:31:26.461Z,10.72
2019-04-10T18:33:56.728Z,10.71
2019-04-10T18:36:28.400Z,10.68
2019-04-10T18:38:59.697Z,10.66
2019-04-10T18:41:31.835Z,10.67
2019-04-10T18:44:02.649Z,10.71
2019-04-10T18:46:33.392Z,10.66
2019-04-10T18:49:03.811Z,10.63
2019-04-10T18:51:36.230Z,10.55
2019-04-10T18:54:08.092Z,10.53
2019-04-10T18:56:39.286Z,10.46
2019-04-10T18:59:16.422Z,10.46
2019-04-10T19:02:08.350Z,10.46
2019-04-10T19:04:53.667Z,10.42
2019-04-10T19:07:25.108Z,10.39
2019-04-10T19:09:56.643Z,10.37
2019-04-10T19:12:28.658Z,10.31
2019-04-10T19:14:59.317Z,10.23
2019-04-10T19:17:31.016Z,10.16
2019-04-10T19:20:02.161Z,10.14
2019-04-10T19:22:34.729Z,10.09
2019-04-10T19:25:06.155Z,10.04
2019-04-10T19:27:37.120Z,10.04
2019-04-10T19:30:14.959Z,10.02
2019-04-10T19:32:45.836Z,10.00
2019-04-10T19:35:16.982Z,9.95
2019-04-10T19:37:50.401Z,9.94
2019-04-10T19:40:21.219Z,9.93
2019-04-10T19:42:51.917Z,9.88
2019-04-10T19:45:22.366Z,9.86
2019-04-10T19:47:53.032Z,9.87
2019-04-10T19:50:24.119Z,9.85
2019-04-10T19:52:55.085Z,9.85
2019-04-10T19:55:25.381Z,9.84
2019-04-10T19:57:56.016Z,9.81
2019-04-10T20:00:30.955Z,9.79
2019-04-10T20:03:01.578Z,9.80
2019-04-10T20:05:32.200Z,9.80
2019-04-10T20:08:02.993Z,9.78
2019-04-10T20:10:33.791Z,9.81
2019-04-10T20:13:04.780Z,9.81
2019-04-10T20:15:36.300Z,9.80
2019-04-10T20:18:08.571Z,9.79
2019-04-10T20:20:39.897Z,9.78
2019-04-10T20:23:23.664Z,9.78
2019-04-10T20:25:55.392Z,9.76
2019-04-10T20:28:26.830Z,9.76
2019-04-10T20:30:58.087Z,9.74
2019-04-10T20:33:30.597Z,9.76
2019-04-10T20:36:01.222Z,9.75
2019-04-10T20:38:33.394Z,9.74
2019-04-10T20:41:04.626Z,9.72
2019-04-10T20:43:35.327Z,9.73
2019-04-10T20:46:06.599Z,9.70
2019-04-10T20:48:38.355Z,9.68
2019-04-10T20:51:09.285Z,9.64
2019-04-10T20:53:40.251Z,9.61
2019-04-10T20:56:10.800Z,9.59
2019-04-10T20:58:42.133Z,9.57
2019-04-10T21:01:14.457Z,9.51
2019-04-10T21:03:45.388Z,9.47
2019-04-10T21:06:17.505Z,9.43
2019-04-10T21:08:48.200Z,9.37
2019-04-10T21:11:18.722Z,9.33
2019-04-10T21:13:49.101Z,9.25
2019-04-10T21:16:19.900Z,9.18
2019-04-10T21:18:51.829Z,9.11
2019-04-10T21:21:24.330Z,9.04
2019-04-10T21:23:56.482Z,8.98
2019-04-10T21:26:30.496Z,8.89
2019-04-10T21:29:01.028Z,8.84
2019-04-10T21:31:53.257Z,8.76
2019-04-10T21:34:30.472Z,8.70
2019-04-10T21:37:01.772Z,8.66
2019-04-10T21:39:32.134Z,8.60
2019-04-10T21:42:13.129Z,8.54
2019-04-10T21:44:35.214Z,8.50
2019-04-10T21:47:05.551Z,8.45
2019-04-10T21:49:38.025Z,8.40
2019-04-10T21:52:09.728Z,8.37
2019-04-10T21:54:49.787Z,8.35
2019-04-10T21:57:12.454Z,8.22
2019-04-10T21:59:43.180Z,8.10
2019-04-10T22:02:13.490Z,8.00
2019-04-10T22:04:43.752Z,7.94
2019-04-10T22:07:41.995Z,7.85
2019-04-10T22:10:28.064Z,7.75
2019-04-10T22:12:59.501Z,7.68
2019-04-10T22:15:39.427Z,7.64
2019-04-10T22:18:11.167Z,7.58
2019-04-10T22:20:41.681Z,7.54
2019-04-10T22:23:12.254Z,7.52
2019-04-10T22:25:43.724Z,7.49
2019-04-10T22:28:14.953Z,7.40
2019-04-10T22:30:46.607Z,7.34
2019-04-10T22:33:18.116Z,7.31
2019-04-10T22:35:48.429Z,7.24
2019-04-10T22:38:19.410Z,7.22
2019-04-10T22:40:50.364Z,7.18
2019-04-10T22:43:20.829Z,7.21
2019-04-10T22:45:51.036Z,7.19
2019-04-10T22:48:21.203Z,7.20
2019-04-10T22:50:51.508Z,7.20
2019-04-10T22:53:21.725Z,7.23
2019-04-10T22:55:52.834Z,7.21
2019-04-10T22:58:23.052Z,7.18
2019-04-10T23:00:53.896Z,7.17
2019-04-10T23:03:24.478Z,7.29
2019-04-10T23:05:54.867Z,7.36
2019-04-10T23:08:25.417Z,7.33
2019-04-10T23:10:55.743Z,7.30
2019-04-10T23:13:30.095Z,7.28
2019-04-10T23:16:00.423Z,7.31
2019-04-10T23:18:31.743Z,7.27
2019-04-10T23:21:02.345Z,7.24
2019-04-10T23:23:32.851Z,7.21
2019-04-10T23:26:03.111Z,7.21
2019-04-10T23:28:33.758Z,7.16
2019-04-10T23:31:05.689Z,7.23
2019-04-10T23:33:36.583Z,7.38
2019-04-10T23:36:07.684Z,7.40
2019-04-10T23:38:37.909Z,7.44
2019-04-10T23:41:09.386Z,7.44
2019-04-10T23:43:40.058Z,7.50
2019-04-10T23:46:12.763Z,7.55
2019-04-10T23:48:44.706Z,7.57
2019-04-10T23:51:14.838Z,7.58
2019-04-10T23:53:46.698Z,7.60
2019-04-10T23:56:17.755Z,7.60
2019-04-10T23:58:49.204Z,7.63
